• Join FlightAware (Why Join?)
  • Login
  • US Flag 
01:39PM EDT


 

Airport Tracker/Info


-or-


 

Live Flight TrackerFlight Track Log ✈ RAX1073 ✈ 07-May-2013 ✈ KHKS - KELP

Flight Track Log - Related Links

Times and Time Zones

All times are in EDT time to prevent confusion due to time zone crossing. See the RAX1073 flight status page for this flight to view local times or setup timezone preferences in your user account.

Time Position Orientation Groundspeed Altitude Reporting Facility
EDT Latitude Longitude Course Direction KTS MPH feet Rate Location/Type
06:15PM 32.3756 -90.2467 272° West 166 191 2,700  Level Memphis Center
06:16PM 32.3775 -90.3131 272° West 194 223 5,500 3,300 Climbing Memphis Center
06:17PM 32.3797 -90.3819 272° West 219 252 9,300 3,360 Climbing Memphis Center
06:18PM 32.3797 -90.4581 270° West 225 259 12,300 2,700 Climbing Memphis Center
06:19PM 32.3878 -90.5419 277° West 246 283 14,700 2,400 Climbing Memphis Center
06:20PM 32.3897 -90.6428 271° West 279 321 17,100 2,280 Climbing Memphis Center
06:21PM 32.3958 -90.7461 274° West 307 353 19,300 1,920 Climbing Memphis Center
06:22PM 32.3994 -90.8592 272° West 330 380 21,000 1,680 Climbing Memphis Center
06:23PM 32.4058 -91.0761 272° West 382 440 23,800 1,500 Climbing Houston Center
06:24PM 32.4083 -91.1539 272° West 373 429 24,500 1,260 Climbing Fort Worth Center
06:25PM 32.4147 -91.2814 273° West 381 438 26,000 1,620 Climbing Fort Worth Center
06:26PM 32.4208 -91.4114 273° West 389 448 27,800 1,680 Climbing Fort Worth Center
06:27PM 32.4247 -91.5367 272° West 389 448 29,400 1,380 Climbing Fort Worth Center
06:28PM 32.4286 -91.6644 272° West 389 448 30,600 1,080 Climbing Fort Worth Center
06:29PM 32.4325 -91.7944 272° West 389 448 31,600 1,080 Climbing Fort Worth Center
06:30PM 32.4383 -91.9269 273° West 401 461 32,800 4,200 Climbing Fort Worth Center
06:31PM 32.4439 -92.0572 273° West 401 461 40,000 1,200 Climbing Fort Worth Center
06:32PM 32.4469 -92.1825 272° West 401 461 35,200 -1,860 Descending Fort Worth Center
06:33PM 32.4461 -92.3131 270° West 401 461 36,300 1,020 Climbing Fort Worth Center
06:34PM 32.4469 -92.4383 270° West 396 456 37,300 900 Climbing Fort Worth Center
06:35PM 32.4481 -92.5739 271° West 384 442 38,100 780 Climbing Fort Worth Center
06:36PM 32.4486 -92.6969 270° West 379 436 38,900 780 Climbing Fort Worth Center
06:37PM 32.4533 -92.8222 273° West 386 444 39,700 540 Climbing Fort Worth Center
06:38PM 32.4556 -92.9475 271° West 386 444 40,000 120 Climbing Fort Worth Center
06:39PM 32.4581 -93.0756 271° West 386 444 40,000  Level Fort Worth Center
06:40PM 32.4583 -93.2033 270° West 386 444 40,000  Level Fort Worth Center
06:41PM 32.4583 -93.3339 270° West 386 444 40,000  Level Fort Worth Center
06:42PM 32.4583 -93.4644 270° West 391 450 40,000  Level Fort Worth Center
06:43PM 32.4583 -93.5972 270° West 398 458 40,000  Level Fort Worth Center
06:44PM 32.4619 -93.7203 272° West 398 458 40,000  Level Fort Worth Center
06:45PM 32.4594 -93.8508 269° West 398 458 40,000  Level Fort Worth Center
06:46PM 32.4569 -93.9864 269° West 403 464 40,000  Level Fort Worth Center
06:47PM 32.4583 -94.1119 271° West 403 464 40,000  Level Fort Worth Center
06:48PM 32.4575 -94.2422 270° West 403 464 40,000  Level Fort Worth Center
06:49PM 32.4564 -94.3728 269° West 403 464 40,000  Level Fort Worth Center
06:50PM 32.4547 -94.4811 269° West 403 464 40,000  Level Fort Worth Center
06:51PM 32.4517 -94.6242 269° West 403 464 40,000  Level Fort Worth Center
06:52PM 32.4525 -94.7544 270° West 403 464 40,000  Level Fort Worth Center
06:53PM 32.4489 -94.8850 268° West 403 464 40,000  Level Fort Worth Center
06:54PM 32.4517 -95.0228 271° West 408 470 40,000  Level Fort Worth Center
06:55PM 32.4519 -95.1558 270° West 408 470 40,000  Level Fort Worth Center
06:56PM 32.4481 -95.2914 268° West 408 470 40,000  Level Fort Worth Center
06:57PM 32.4461 -95.4267 269° West 408 470 40,000  Level Fort Worth Center
06:58PM 32.4461 -95.5622 270° West 408 470 40,000  Level Fort Worth Center
06:59PM 32.4417 -95.6953 268° West 408 470 40,000  Level Fort Worth Center
07:00PM 32.4414 -95.8306 270° West 408 470 40,000  Level Fort Worth Center
07:01PM 32.4389 -95.9636 269° West 408 470 40,000  Level Fort Worth Center
07:02PM 32.4364 -96.1114 269° West 408 470 40,000  Level Fort Worth Center
07:03PM 32.4333 -96.2319 268° West 408 470 40,000  Level Fort Worth Center
07:04PM 32.4283 -96.3772 268° West 403 464 40,000  Level Fort Worth Center
07:05PM 32.4250 -96.4978 268° West 403 464 40,000  Level Fort Worth Center
07:06PM 32.4219 -96.6481 269° West 403 464 40,000  Level Fort Worth Center
07:07PM 32.4206 -96.7661 269° West 403 464 40,000  Level Fort Worth Center
07:08PM 32.4147 -96.9114 267° West 403 464 40,000  Level Fort Worth Center
07:09PM 32.4111 -97.0319 268° West 403 464 40,000  Level Fort Worth Center
07:10PM 32.4072 -97.1772 268° West 403 464 40,000  Level Fort Worth Center
07:11PM 32.4033 -97.2928 268° West 403 464 40,000  Level Fort Worth Center
07:12PM 32.4011 -97.4431 269° West 403 464 40,000  Level Fort Worth Center
07:13PM 32.3969 -97.5611 268° West 403 464 40,000  Level Fort Worth Center
07:14PM 32.3906 -97.7086 267° West 403 464 40,000  Level Fort Worth Center
07:15PM 32.3881 -97.8292 269° West 403 464 40,000  Level Fort Worth Center
07:16PM 32.3811 -97.9817 267° West 410 472 40,000  Level Fort Worth Center
07:17PM 32.3783 -98.0997 268° West 410 472 40,000  Level Fort Worth Center
07:18PM 32.3733 -98.2497 268° West 415 478 40,000  Level Fort Worth Center
07:19PM 32.3683 -98.3750 267° West 420 483 40,000  Level Fort Worth Center
07:20PM 32.3608 -98.5203 267° West 420 483 40,000  Level Fort Worth Center
07:21PM 32.3553 -98.6553 267° West 420 483 40,000  Level Fort Worth Center
07:22PM 32.3497 -98.7881 267° West 420 483 40,000  Level Fort Worth Center
07:23PM 32.3461 -98.9233 268° West 420 483 40,000  Level Fort Worth Center
07:24PM 32.3406 -99.0411 267° West 420 483 40,000  Level Fort Worth Center
07:25PM 32.3347 -99.1714 267° West 415 478 40,000  Level Fort Worth Center
07:26PM 32.3283 -99.3064 267° West 410 472 40,000  Level Fort Worth Center
07:27PM 32.3222 -99.4392 267° West 410 472 40,000  Level Fort Worth Center
07:28PM 32.3158 -99.5692 267° West 405 466 40,000  Level Fort Worth Center
07:29PM 32.3072 -99.7042 266° West 405 466 40,000  Level Fort Worth Center
07:30PM 32.3028 -99.8344 268° West 405 466 40,000  Level Fort Worth Center
07:31PM 32.2958 -99.9644 266° West 405 466 40,000  Level Fort Worth Center
07:32PM 32.2911 -100.0969 268° West 405 466 40,000  Level Fort Worth Center
07:33PM 32.2819 -100.2269 265° West 405 466 40,000  Level Fort Worth Center
07:34PM 32.2769 -100.3569 267° West 405 466 40,000  Level Fort Worth Center
07:35PM 32.2697 -100.4869 266° West 405 466 40,000  Level Fort Worth Center
07:36PM 32.2622 -100.6194 266° West 400 460 40,000  Level Fort Worth Center
07:37PM 32.2544 -100.7494 266° West 400 460 40,000  Level Fort Worth Center
07:38PM 32.2489 -100.8817 267° West 400 460 40,000  Level Fort Worth Center
07:39PM 32.2411 -101.0092 266° West 400 460 40,000  Level Fort Worth Center
07:40PM 32.2328 -101.1536 266° West 400 460 40,000  Level Fort Worth Center
07:41PM 32.2247 -101.2811 266° West 400 460 40,000  Level Fort Worth Center
07:42PM 32.2144 -101.4108 265° West 400 460 40,000  Level Fort Worth Center
07:43PM 32.2061 -101.5381 266° West 400 460 40,000  Level Fort Worth Center
07:44PM 32.1997 -101.6678 267° West 400 460 40,000  Level Fort Worth Center
07:45PM 32.1911 -101.7925 265° West 400 460 40,000  Level Fort Worth Center
07:46PM 32.1825 -101.9222 266° West 400 460 40,000  Level Fort Worth Center
07:47PM 32.1736 -102.0519 265° West 400 460 40,000  Level Fort Worth Center
07:48PM 32.1647 -102.1792 265° West 400 460 40,000  Level Fort Worth Center
07:49PM 32.1575 -102.3061 266° West 400 460 40,000  Level Fort Worth Center
07:50PM 32.1464 -102.4331 264° West 400 460 40,000  Level Fort Worth Center
07:51PM 32.1392 -102.5603 266° West 400 460 40,000  Level Fort Worth Center
07:53PM 32.1208 -102.8094 265° West 388 447 40,000  Level Albuquerque Center
07:54PM 32.1094 -102.9336 264° West 384 442 40,000  Level Albuquerque Center
07:55PM 32.1022 -103.0581 266° West 382 440 40,000  Level Albuquerque Center
07:56PM 32.1008 -103.1831 269° West 381 438 40,000  Level Albuquerque Center
07:57PM 32.0933 -103.3058 266° West 379 436 40,000  Level Albuquerque Center
07:58PM 32.0872 -103.4281 267° West 377 434 40,000  Level Albuquerque Center
07:59PM 32.0800 -103.5750 267° West 375 432 40,000  Level Albuquerque Center
08:00PM 32.0739 -103.6975 267° West 375 432 40,000  Level Albuquerque Center
08:01PM 32.0675 -103.8183 266° West 373 429 40,000 -120 Level Albuquerque Center
08:02PM 32.0608 -103.9397 266° West 372 428 39,800 -780 Descending Albuquerque Center
08:03PM 32.0533 -104.0639 266° West 372 428 38,500 -1,320 Descending Albuquerque Center
08:05PM 32.0456 -104.1906 266° West 382 440 37,100 -1,260 Descending Albuquerque Center
08:06PM 32.0397 -104.3217 267° West 395 455 36,000 -1,080 Descending Albuquerque Center
08:07PM 32.0325 -104.4558 266° West 408 470 35,000 -1,020 Descending Albuquerque Center
08:08PM 32.0136 -104.6175 262° West 415 478 33,900 -840 Descending Albuquerque Center
08:09PM 31.9714 -104.7375 248° West 410 472 33,300 -1,620 Descending Albuquerque Center
08:10PM 31.9231 -104.8642 246° West 421 484 30,600 -2,400 Descending Albuquerque Center
08:11PM 31.8736 -104.9906 245° Southwest 427 491 28,500 -2,040 Descending Albuquerque Center
08:12PM 31.8569 -105.1203 261° West 424 488 26,500 -2,760 Descending Albuquerque Center
08:13PM 31.8544 -105.2511 269° West 410 472 22,900 -3,600 Descending Albuquerque Center
08:14PM 31.8456 -105.4136 266° West 407 468 19,000 -2,820 Descending Albuquerque Center
08:15PM 31.8439 -105.5364 269° West 386 444 17,100 -2,220 Descending Albuquerque Center
08:16PM 31.8383 -105.6533 267° West 363 418 14,600 -2,220 Descending Albuquerque Center
08:17PM 31.8331 -105.7797 267° West 321 369 12,400 -1,320 Descending Albuquerque Center
08:18PM 31.8300 -105.8594 267° West 311 358 12,000 -540 Descending Albuquerque Center
08:19PM 31.8264 -105.9742 268° West 316 364 11,400 -1,740 Descending Albuquerque Center
08:20PM 31.8225 -106.0578 267° West 299 344 8,800 -1,980 Descending Albuquerque Center
08:21PM 31.8175 -106.1467 266° West 270 311 7,700 -1,140 Descending Albuquerque Center
08:22PM 31.8086 -106.2264 263° West 243 280 6,500 -900 Descending Albuquerque Center
08:23PM 31.8011 -106.2906 262° West 207 238 6,000 -660 Descending Albuquerque Center
08:24PM 31.7931 -106.3403 259° West 173 199 5,200 -840 Descending Albuquerque Center
08:26PM 31.8000 -106.3667 270° West  Level FlightAware Approximate
08:33PM 31.8072 -106.3764 270° West  Level Estimated
08:34PM 31.8072 -106.3764 270° West  Level Estimated
08:35PM 31.8072 -106.3764 270° West  Level Estimated
08:36PM 31.8072 -106.3764 270° West  Level Estimated
08:37PM 31.8072 -106.3764 270° West  Level Estimated
08:38PM 31.8072 -106.3764 270° West  Level Estimated
08:39PM 31.8072 -106.3764 270° West  Level Estimated